Time;durP1;ratioP1;P1;durP2;ratioP2;P2;SDS_P1;SDS_P2;PMS_P1;PMS_P2;Temp;Humidity;BMP_temperature;BMP_pressure;BME280_temperature;BME280_humidity;BME280_pressure;Samples;Min_cycle;Max_cycle;Signal;HPM_P1;HPM_P2
2022/04/03 00:00:33;;;;;;;0.90;0.52;;;13.00;34.70;;;;;;5137304;27;20443;-68
2022/04/03 00:03:01;;;;;;;2.50;0.70;;;13.00;34.70;;;;;;5133311;27;20122;-68
2022/04/03 00:05:27;;;;;;;1.50;0.80;;;13.00;34.80;;;;;;5133817;27;20084;-68
2022/04/03 00:07:54;;;;;;;2.33;0.82;;;13.00;34.80;;;;;;5135193;27;20035;-68
2022/04/03 00:10:21;;;;;;;1.35;0.75;;;13.00;34.70;;;;;;5133734;27;20035;-68
2022/04/03 00:12:47;;;;;;;3.00;1.27;;;13.00;34.70;;;;;;5133335;27;20486;-67
2022/04/03 00:15:14;;;;;;;2.88;0.73;;;13.00;34.70;;;;;;5133361;27;20050;-68
2022/04/03 00:17:41;;;;;;;1.85;0.93;;;13.00;34.80;;;;;;5133397;27;20076;-67
2022/04/03 00:20:08;;;;;;;1.83;1.08;;;13.00;34.80;;;;;;5116491;27;20068;-67
2022/04/03 00:22:34;;;;;;;1.25;0.85;;;12.90;34.80;;;;;;5133240;27;20364;-68
2022/04/03 00:25:00;;;;;;;1.42;0.88;;;12.90;34.80;;;;;;5132145;27;20043;-69
2022/04/03 00:27:26;;;;;;;1.83;0.90;;;13.00;34.90;;;;;;5134646;27;20043;-67
2022/04/03 00:29:54;;;;;;;3.85;1.25;;;13.00;34.90;;;;;;5133322;27;20041;-67
2022/04/03 00:32:23;;;;;;;2.65;0.80;;;12.90;34.80;;;;;;5133055;27;20474;-67
2022/04/03 00:34:49;;;;;;;1.33;0.60;;;12.90;34.80;;;;;;5134369;27;20039;-68
2022/04/03 00:37:15;;;;;;;3.83;1.13;;;12.90;34.90;;;;;;5133041;27;20431;-68
2022/04/03 00:39:41;;;;;;;2.08;1.00;;;12.90;34.90;;;;;;5134158;27;20037;-68
2022/04/03 00:42:08;;;;;;;2.50;1.00;;;12.90;34.90;;;;;;5133979;27;20398;-68
2022/04/03 00:44:40;;;;;;;1.88;0.82;;;12.90;34.90;;;;;;5133311;27;20356;-67
2022/04/03 00:47:06;;;;;;;2.10;1.08;;;12.90;34.90;;;;;;5133016;27;20534;-67
2022/04/03 00:49:32;;;;;;;1.63;0.93;;;12.80;34.90;;;;;;5132624;27;20115;-68
2022/04/03 00:51:58;;;;;;;2.05;1.02;;;12.80;34.90;;;;;;5132661;27;20125;-70
2022/04/03 00:54:27;;;;;;;1.58;0.93;;;12.80;35.00;;;;;;5132580;27;20504;-68
2022/04/03 00:56:53;;;;;;;2.17;0.73;;;12.80;35.00;;;;;;5132717;27;20497;-68
2022/04/03 00:59:19;;;;;;;2.15;0.63;;;12.80;34.90;;;;;;5132710;27;20043;-68
2022/04/03 01:01:45;;;;;;;1.60;0.82;;;12.80;34.90;;;;;;5132374;27;20059;-68
2022/04/03 01:04:11;;;;;;;3.42;1.05;;;12.80;35.00;;;;;;5132620;27;20039;-69
2022/04/03 01:06:37;;;;;;;1.38;0.82;;;12.80;35.00;;;;;;5132398;27;20442;-67
2022/04/03 01:09:03;;;;;;;1.40;0.77;;;12.80;34.90;;;;;;5132634;27;20047;-68
2022/04/03 01:11:29;;;;;;;2.50;0.90;;;12.80;34.90;;;;;;5132142;27;20486;-68
2022/04/03 01:13:57;;;;;;;1.02;0.68;;;12.80;35.00;;;;;;5132316;27;20031;-67
2022/04/03 01:16:22;;;;;;;2.25;0.75;;;12.70;35.00;;;;;;5133647;27;20039;-68
2022/04/03 01:18:49;;;;;;;3.50;1.13;;;12.70;35.00;;;;;;5132683;27;20443;-68
2022/04/03 01:21:17;;;;;;;1.90;0.75;;;12.70;35.00;;;;;;5132364;27;20077;-67
2022/04/03 01:23:43;;;;;;;1.50;0.60;;;12.70;35.00;;;;;;5133384;27;20035;-67
2022/04/03 01:26:09;;;;;;;2.08;0.95;;;12.70;35.10;;;;;;5133276;27;20390;-68
2022/04/03 01:28:35;;;;;;;1.60;0.52;;;12.70;35.10;;;;;;5131974;27;20054;-68
2022/04/03 01:31:00;;;;;;;1.80;0.82;;;12.70;35.00;;;;;;5131921;27;20039;-68
2022/04/03 01:33:26;;;;;;;1.20;0.70;;;12.70;35.00;;;;;;5132260;27;20039;-67
2022/04/03 01:35:52;;;;;;;3.38;1.23;;;12.70;35.00;;;;;;5131844;27;20478;-68
2022/04/03 01:38:18;;;;;;;1.98;0.77;;;12.70;35.00;;;;;;5131797;27;20047;-68
2022/04/03 01:40:43;;;;;;;1.55;0.65;;;12.70;35.00;;;;;;5132022;27;20088;-68
2022/04/03 01:43:10;;;;;;;1.80;0.85;;;12.70;35.10;;;;;;5131569;27;20482;-68
2022/04/03 01:45:37;;;;;;;2.15;1.10;;;12.70;35.10;;;;;;5131964;27;20054;-67
2022/04/03 01:48:04;;;;;;;1.50;1.00;;;12.70;35.10;;;;;;5131292;27;20039;-67
2022/04/03 01:50:31;;;;;;;1.30;0.70;;;12.60;35.10;;;;;;5131491;27;20043;-67
2022/04/03 01:52:56;;;;;;;1.17;0.60;;;12.60;35.10;;;;;;5132935;27;20099;-68
2022/04/03 01:55:24;;;;;;;1.30;0.90;;;12.60;35.20;;;;;;5131540;27;20043;-68
2022/04/03 01:57:49;;;;;;;2.95;0.70;;;12.60;35.20;;;;;;5131458;27;20467;-67
2022/04/03 02:00:15;;;;;;;1.30;0.80;;;12.60;35.10;;;;;;5131481;28;20068;-68
2022/04/03 02:02:41;;;;;;;2.75;0.82;;;12.60;35.20;;;;;;5145097;27;20050;-68
2022/04/03 02:05:07;;;;;;;1.77;0.80;;;12.60;35.20;;;;;;5134972;27;20379;-68
2022/04/03 02:07:33;;;;;;;1.17;0.68;;;12.60;35.20;;;;;;5134874;27;20045;-67
2022/04/03 02:10:03;;;;;;;1.45;0.70;;;12.60;35.20;;;;;;5131219;28;20344;-68
2022/04/03 02:12:29;;;;;;;1.10;0.50;;;12.60;35.20;;;;;;5114352;28;20433;-68
2022/04/03 02:14:55;;;;;;;2.17;1.10;;;12.60;35.20;;;;;;5114655;28;20039;-67
2022/04/03 02:17:25;;;;;;;1.00;0.60;;;12.60;35.30;;;;;;5114234;28;20391;-67
2022/04/03 02:19:50;;;;;;;1.40;0.50;;;12.60;35.30;;;;;;5131434;28;20469;-67
2022/04/03 02:22:16;;;;;;;1.27;0.80;;;12.60;35.20;;;;;;5114231;28;20088;-67
2022/04/03 02:24:42;;;;;;;1.20;0.60;;;12.50;35.20;;;;;;5132637;28;20035;-67
2022/04/03 02:27:08;;;;;;;1.45;0.70;;;12.50;35.20;;;;;;5132612;28;20108;-67
2022/04/03 02:29:33;;;;;;;2.25;0.63;;;12.50;35.20;;;;;;5133110;28;20450;-68
2022/04/03 02:31:59;;;;;;;1.38;0.70;;;12.50;35.20;;;;;;5114380;28;20047;-67
2022/04/03 02:34:26;;;;;;;1.77;0.73;;;12.50;35.20;;;;;;5132703;28;20071;-67
2022/04/03 02:36:52;;;;;;;1.60;0.40;;;12.60;35.30;;;;;;5132486;28;20042;-68
2022/04/03 02:39:18;;;;;;;1.20;0.52;;;12.50;35.20;;;;;;5114133;28;20046;-69
2022/04/03 02:41:44;;;;;;;1.45;0.70;;;12.50;35.20;;;;;;5132311;28;20091;-68
2022/04/03 02:44:10;;;;;;;1.75;0.57;;;12.50;35.20;;;;;;5114059;28;20031;-67
2022/04/03 02:46:36;;;;;;;1.15;0.60;;;12.50;35.20;;;;;;5113925;28;20038;-67
2022/04/03 02:49:02;;;;;;;2.33;0.68;;;12.50;35.20;;;;;;5116159;27;20046;-68
2022/04/03 02:51:27;;;;;;;1.23;0.65;;;12.50;35.30;;;;;;5117918;27;20567;-67
2022/04/03 02:53:53;;;;;;;1.48;0.75;;;12.50;35.30;;;;;;5118209;27;20035;-67
2022/04/03 02:56:19;;;;;;;2.13;0.73;;;12.50;35.30;;;;;;5117828;27;20039;-66
2022/04/03 02:58:48;;;;;;;2.05;0.70;;;12.50;35.40;;;;;;5120814;27;20100;-66
2022/04/03 03:01:14;;;;;;;1.40;0.50;;;12.50;35.40;;;;;;5117247;27;20042;-66
2022/04/03 03:03:39;;;;;;;1.20;0.60;;;12.50;35.40;;;;;;5117362;27;20043;-68
2022/04/03 03:06:06;;;;;;;1.85;0.68;;;12.40;35.30;;;;;;5117757;27;20047;-67
2022/04/03 03:08:34;;;;;;;2.65;0.80;;;12.50;35.40;;;;;;5147678;27;20030;-67
2022/04/03 03:11:00;;;;;;;1.20;0.57;;;12.50;35.40;;;;;;5155227;27;20031;-67
2022/04/03 03:13:28;;;;;;;1.13;0.43;;;12.50;35.40;;;;;;5155486;27;20091;-67
2022/04/03 03:15:54;;;;;;;1.77;0.50;;;12.50;35.40;;;;;;5155280;27;20039;-67
2022/04/03 03:18:20;;;;;;;1.52;0.55;;;12.50;35.40;;;;;;5155412;27;20038;-68
2022/04/03 03:20:46;;;;;;;1.00;0.50;;;12.50;35.40;;;;;;5155218;27;20118;-67
2022/04/03 03:23:11;;;;;;;1.00;0.45;;;12.40;35.30;;;;;;5154962;27;20113;-68
2022/04/03 03:25:37;;;;;;;1.40;0.50;;;12.50;35.40;;;;;;5155382;27;20125;-68
2022/04/03 03:28:03;;;;;;;1.08;0.60;;;12.40;35.30;;;;;;5154926;27;20580;-67
2022/04/03 03:30:29;;;;;;;2.17;0.52;;;12.40;35.30;;;;;;5155062;27;20144;-68
2022/04/03 03:32:54;;;;;;;1.40;0.70;;;12.40;35.30;;;;;;5155235;27;20082;-67
2022/04/03 03:35:20;;;;;;;1.20;0.60;;;12.40;35.30;;;;;;5154896;27;20387;-67
2022/04/03 03:37:46;;;;;;;1.38;0.50;;;12.40;35.30;;;;;;5156221;27;20031;-67
2022/04/03 03:40:11;;;;;;;1.63;0.60;;;12.40;35.30;;;;;;5154723;27;20119;-67
2022/04/03 03:42:40;;;;;;;1.73;0.30;;;12.40;35.40;;;;;;5154835;27;20158;-72
2022/04/03 03:45:08;;;;;;;1.67;0.50;;;12.40;35.40;;;;;;5155969;27;20043;-67
2022/04/03 03:47:34;;;;;;;0.75;0.30;;;12.40;35.50;;;;;;5156128;27;20507;-72
2022/04/03 03:50:00;;;;;;;1.35;0.57;;;12.40;35.40;;;;;;5154836;27;20070;-69
2022/04/03 03:52:25;;;;;;;1.05;0.30;;;12.40;35.50;;;;;;5155991;27;20121;-70
2022/04/03 03:54:52;;;;;;;1.38;0.40;;;12.40;35.50;;;;;;5155878;27;20042;-69
2022/04/03 03:57:18;;;;;;;1.20;0.50;;;12.30;35.40;;;;;;5154778;27;20042;-70
2022/04/03 03:59:44;;;;;;;0.93;0.57;;;12.40;35.50;;;;;;5154393;27;20409;-69
2022/04/03 04:02:09;;;;;;;0.90;0.38;;;12.40;35.50;;;;;;5154067;27;20528;-69
2022/04/03 04:04:35;;;;;;;0.73;0.35;;;12.30;35.50;;;;;;5155669;27;20064;-69
2022/04/03 04:07:01;;;;;;;1.80;0.50;;;12.40;35.60;;;;;;5154284;27;20066;-69
2022/04/03 04:09:27;;;;;;;1.40;0.55;;;12.40;35.60;;;;;;5154535;27;20113;-71
2022/04/03 04:11:52;;;;;;;1.02;0.40;;;12.40;35.60;;;;;;5154252;27;20065;-69
2022/04/03 04:14:18;;;;;;;1.10;0.38;;;12.30;35.60;;;;;;5154098;27;20030;-69
2022/04/03 04:16:46;;;;;;;1.17;0.47;;;12.30;35.60;;;;;;5153978;27;20035;-69
2022/04/03 04:19:12;;;;;;;0.90;0.55;;;12.30;35.60;;;;;;5154338;27;20078;-70
2022/04/03 04:21:38;;;;;;;0.85;0.40;;;12.30;35.60;;;;;;5154145;27;20132;-69
2022/04/03 04:24:04;;;;;;;0.80;0.60;;;12.40;35.60;;;;;;5154266;27;20030;-69
2022/04/03 04:26:30;;;;;;;1.05;0.65;;;12.40;35.70;;;;;;5153870;27;20427;-69
2022/04/03 04:28:56;;;;;;;2.08;0.40;;;12.40;35.70;;;;;;5154020;27;20059;-68
2022/04/03 04:31:21;;;;;;;1.20;0.50;;;12.30;35.70;;;;;;5153751;27;20393;-70
2022/04/03 04:33:47;;;;;;;0.90;0.40;;;12.40;35.80;;;;;;5153810;27;20035;-70
2022/04/03 04:36:13;;;;;;;2.00;0.40;;;12.30;35.70;;;;;;5153951;27;20060;-69
2022/04/03 04:38:38;;;;;;;0.60;0.40;;;12.30;35.80;;;;;;5153653;27;20046;-71
2022/04/03 04:41:04;;;;;;;1.80;0.50;;;12.30;35.80;;;;;;5154900;27;20027;-70
2022/04/03 04:43:30;;;;;;;1.02;0.38;;;12.40;35.90;;;;;;5153456;27;20375;-68
2022/04/03 04:45:56;;;;;;;1.25;0.40;;;12.30;35.80;;;;;;5153360;27;20091;-71
2022/04/03 04:48:25;;;;;;;0.82;0.32;;;12.30;35.90;;;;;;5154904;27;20038;-70
2022/04/03 04:50:50;;;;;;;0.65;0.30;;;12.30;35.90;;;;;;5154755;27;20027;-69
2022/04/03 04:53:16;;;;;;;0.80;0.40;;;12.30;36.00;;;;;;5153354;27;20038;-71
2022/04/03 04:55:42;;;;;;;0.80;0.32;;;12.30;36.00;;;;;;5154684;27;20113;-69
2022/04/03 04:58:07;;;;;;;1.02;0.40;;;12.40;36.10;;;;;;5153205;27;20063;-68
2022/04/03 05:00:33;;;;;;;1.30;0.30;;;12.30;36.00;;;;;;5154428;27;20035;-69
2022/04/03 05:02:59;;;;;;;1.00;0.60;;;12.40;36.10;;;;;;5152868;27;20038;-68
2022/04/03 05:05:28;;;;;;;0.90;0.40;;;12.40;36.10;;;;;;5154568;27;20122;-69
2022/04/03 05:07:55;;;;;;;0.98;0.40;;;12.30;36.10;;;;;;5152968;27;20038;-69
2022/04/03 05:10:26;;;;;;;0.95;0.38;;;12.30;36.80;;;;;;5152964;27;20034;-69
2022/04/03 05:12:53;;;;;;;1.33;0.50;;;12.40;36.20;;;;;;5153778;27;20409;-69
2022/04/03 05:15:19;;;;;;;1.55;0.60;;;12.40;36.20;;;;;;5154192;27;20487;-70
2022/04/03 05:17:45;;;;;;;1.17;0.45;;;12.40;36.20;;;;;;5154061;27;20125;-69
2022/04/03 05:20:13;;;;;;;1.00;0.40;;;12.30;36.20;;;;;;5153088;27;20026;-69
2022/04/03 05:22:40;;;;;;;1.15;0.50;;;12.30;36.20;;;;;;5152730;27;20453;-69
2022/04/03 05:25:06;;;;;;;1.58;0.30;;;12.30;36.20;;;;;;5153071;27;20390;-71
2022/04/03 05:27:33;;;;;;;0.73;0.30;;;12.40;36.30;;;;;;5153936;27;20419;-69
2022/04/03 05:29:59;;;;;;;0.63;0.30;;;12.30;36.20;;;;;;5152673;27;20486;-67
2022/04/03 05:32:29;;;;;;;0.93;0.22;;;12.40;36.30;;;;;;5152929;27;20050;-66
2022/04/03 05:34:56;;;;;;;2.15;0.30;;;12.30;36.20;;;;;;5153295;27;20066;-68
2022/04/03 05:37:22;;;;;;;1.27;0.30;;;12.40;36.30;;;;;;5154141;27;20046;-67
2022/04/03 05:39:49;;;;;;;1.17;0.30;;;12.40;36.30;;;;;;5152614;27;20046;-66
2022/04/03 05:42:15;;;;;;;1.00;0.40;;;12.30;36.30;;;;;;5153753;27;20402;-67
2022/04/03 05:44:41;;;;;;;1.48;0.20;;;12.30;36.30;;;;;;5152636;27;20039;-68
2022/04/03 05:47:07;;;;;;;1.10;0.30;;;12.30;36.30;;;;;;5153793;27;20122;-67
2022/04/03 05:49:33;;;;;;;0.75;0.30;;;12.30;36.40;;;;;;5153688;27;20038;-68
2022/04/03 05:51:59;;;;;;;0.50;0.25;;;12.40;36.40;;;;;;5153732;27;20038;-67
2022/04/03 05:54:28;;;;;;;0.80;0.40;;;12.30;36.40;;;;;;5153689;27;20121;-67
2022/04/03 05:56:53;;;;;;;0.88;0.35;;;12.30;36.40;;;;;;5152453;27;20058;-69
2022/04/03 05:59:19;;;;;;;0.35;0.20;;;12.40;36.40;;;;;;5152241;27;20047;-69
2022/04/03 06:01:46;;;;;;;0.93;0.20;;;12.30;36.40;;;;;;5153565;27;20091;-68
2022/04/03 06:04:12;;;;;;;0.63;0.20;;;12.30;36.40;;;;;;5152235;27;20493;-69
2022/04/03 06:06:38;;;;;;;0.43;0.28;;;12.30;36.40;;;;;;5153616;27;20143;-68
2022/04/03 06:09:04;;;;;;;0.77;0.28;;;12.30;36.50;;;;;;5152275;27;20493;-69
2022/04/03 06:11:30;;;;;;;1.15;0.40;;;12.30;36.40;;;;;;5152422;27;20049;-69
2022/04/03 06:13:55;;;;;;;1.42;0.20;;;12.30;36.40;;;;;;5152134;27;20042;-68
2022/04/03 06:16:21;;;;;;;0.82;0.20;;;12.30;36.50;;;;;;5153429;27;20179;-71
2022/04/03 06:18:46;;;;;;;0.60;0.20;;;12.30;36.50;;;;;;5152242;27;20051;-69
2022/04/03 06:21:12;;;;;;;0.85;0.30;;;12.30;36.50;;;;;;5153517;27;20035;-70
2022/04/03 06:23:38;;;;;;;0.93;0.50;;;12.30;36.50;;;;;;5153503;27;20034;-69
2022/04/03 06:26:03;;;;;;;0.98;0.38;;;12.30;36.50;;;;;;5157588;27;20091;-69
2022/04/03 06:28:29;;;;;;;1.13;0.20;;;12.40;36.60;;;;;;5155830;27;20050;-69
2022/04/03 06:30:56;;;;;;;2.65;0.40;;;12.30;36.50;;;;;;5156117;27;20027;-69
2022/04/03 06:33:23;;;;;;;0.57;0.30;;;12.40;36.60;;;;;;5156156;27;20141;-68
2022/04/03 06:35:49;;;;;;;0.70;0.32;;;12.40;36.60;;;;;;5156328;27;20047;-68
2022/04/03 06:38:16;;;;;;;0.90;0.30;;;12.30;36.60;;;;;;5156338;27;20046;-69
2022/04/03 06:40:51;;;;;;;0.38;0.20;;;12.40;36.60;;;;;;5138698;27;20050;-69
2022/04/03 06:43:19;;;;;;;1.45;0.20;;;12.40;36.60;;;;;;5157184;27;20066;-68
2022/04/03 06:45:46;;;;;;;0.85;0.30;;;12.40;36.60;;;;;;5155892;27;20665;-69
2022/04/03 06:48:12;;;;;;;1.05;0.30;;;12.40;36.60;;;;;;5155898;27;20039;-69
2022/04/03 06:50:38;;;;;;;0.88;0.30;;;12.40;36.60;;;;;;5155788;27;20125;-69
2022/04/03 06:53:04;;;;;;;1.27;0.40;;;12.40;36.60;;;;;;5157036;27;20047;-69
2022/04/03 06:55:32;;;;;;;1.00;0.20;;;12.40;36.70;;;;;;5157024;27;20047;-69
2022/04/03 06:57:58;;;;;;;0.50;0.20;;;12.50;36.60;;;;;;5154961;27;20474;-69
2022/04/03 07:00:23;;;;;;;0.98;0.30;;;12.50;36.60;;;;;;5155651;27;20043;-69
2022/04/03 07:02:49;;;;;;;0.82;0.20;;;12.60;36.60;;;;;;5155211;27;20050;-70
2022/04/03 07:05:15;;;;;;;0.45;0.20;;;12.60;36.50;;;;;;5155529;27;20039;-68
2022/04/03 07:07:41;;;;;;;1.17;0.30;;;12.60;36.50;;;;;;5155507;27;20035;-69
2022/04/03 07:10:07;;;;;;;1.15;0.20;;;12.60;36.40;;;;;;5155755;27;20046;-68
2022/04/03 07:12:33;;;;;;;0.77;0.20;;;12.70;36.40;;;;;;5155385;27;20121;-69
2022/04/03 07:14:59;;;;;;;1.42;0.30;;;12.70;36.40;;;;;;5156654;27;20122;-69
2022/04/03 07:17:24;;;;;;;1.30;0.32;;;12.70;36.40;;;;;;5155251;27;20031;-68
2022/04/03 07:19:53;;;;;;;0.65;0.20;;;12.70;36.40;;;;;;5156674;27;20038;-68
2022/04/03 07:22:22;;;;;;;0.88;0.17;;;12.70;36.40;;;;;;5155042;27;20050;-69
2022/04/03 07:24:47;;;;;;;1.35;0.20;;;12.70;36.40;;;;;;5155201;27;20050;-69
2022/04/03 07:27:13;;;;;;;2.15;0.20;;;12.70;36.40;;;;;;5155026;27;20043;-68
2022/04/03 07:29:39;;;;;;;0.60;0.20;;;12.70;36.40;;;;;;5155257;27;20041;-69
2022/04/03 07:32:05;;;;;;;0.75;0.30;;;12.70;36.40;;;;;;5154959;27;20039;-70
2022/04/03 07:34:31;;;;;;;1.08;0.20;;;12.80;36.40;;;;;;5154488;27;20068;-70
2022/04/03 07:36:57;;;;;;;0.95;0.20;;;12.80;36.40;;;;;;5155521;27;20042;-69
2022/04/03 07:39:24;;;;;;;0.65;0.13;;;12.80;36.40;;;;;;5137456;27;20554;-69
2022/04/03 07:41:50;;;;;;;1.05;0.20;;;12.80;36.40;;;;;;5154670;27;20046;-69
2022/04/03 07:44:19;;;;;;;0.63;0.20;;;12.80;36.40;;;;;;5155260;27;20415;-70
2022/04/03 07:46:47;;;;;;;1.05;0.20;;;12.80;36.50;;;;;;5156014;27;20077;-68
2022/04/03 07:49:13;;;;;;;0.65;0.20;;;12.80;36.50;;;;;;5154837;27;20512;-70
2022/04/03 07:51:38;;;;;;;0.50;0.20;;;12.80;36.60;;;;;;5155883;27;20042;-68
2022/04/03 07:54:04;;;;;;;1.05;0.20;;;12.80;36.60;;;;;;5154929;27;20489;-71
2022/04/03 07:56:30;;;;;;;1.42;0.28;;;12.80;36.60;;;;;;5154623;27;20103;-71
2022/04/03 07:58:56;;;;;;;1.20;0.20;;;12.80;36.60;;;;;;5154657;27;20053;-69
2022/04/03 08:01:22;;;;;;;0.45;0.15;;;12.90;36.70;;;;;;5155626;27;20393;-70
2022/04/03 08:03:48;;;;;;;0.50;0.20;;;12.90;36.70;;;;;;5153443;27;20054;-70
2022/04/03 08:06:13;;;;;;;2.92;0.17;;;12.80;36.60;;;;;;5154431;27;20051;-68
2022/04/03 08:08:39;;;;;;;0.30;0.10;;;12.80;36.60;;;;;;5154484;27;20039;-70
2022/04/03 08:11:05;;;;;;;0.52;0.10;;;12.80;36.70;;;;;;5154265;27;20030;-70
2022/04/03 08:13:30;;;;;;;0.80;0.20;;;12.80;36.70;;;;;;5154533;27;20066;-69
2022/04/03 08:15:56;;;;;;;0.30;0.10;;;12.80;36.70;;;;;;5154080;27;20046;-69
2022/04/03 08:18:22;;;;;;;1.75;0.40;;;12.80;36.70;;;;;;5155527;27;20042;-68
2022/04/03 08:20:48;;;;;;;1.27;0.20;;;12.80;36.70;;;;;;5136971;27;20058;-68
2022/04/03 08:23:13;;;;;;;1.10;0.10;;;12.80;36.80;;;;;;5153902;27;20049;-70
2022/04/03 08:25:45;;;;;;;0.50;0.10;;;12.80;36.70;;;;;;5154142;27;20126;-70
2022/04/03 08:28:10;;;;;;;1.25;0.20;;;12.90;36.70;;;;;;5155179;27;20039;-70
2022/04/03 08:30:38;;;;;;;1.35;0.10;;;12.90;36.70;;;;;;5153854;27;20038;-68
2022/04/03 08:33:05;;;;;;;1.05;0.10;;;12.90;36.70;;;;;;5155090;27;20341;-69
2022/04/03 08:35:32;;;;;;;0.75;0.20;;;12.90;36.70;;;;;;5155029;27;20378;-70
2022/04/03 08:37:59;;;;;;;0.82;0.10;;;12.90;36.70;;;;;;5153622;27;20049;-70
2022/04/03 08:40:26;;;;;;;0.40;0.10;;;12.90;36.70;;;;;;5153616;27;20042;-69
2022/04/03 08:42:54;;;;;;;0.30;0.10;;;12.90;36.70;;;;;;5154828;27;20031;-72
2022/04/03 08:45:21;;;;;;;0.60;0.10;;;12.90;36.70;;;;;;5153445;27;20121;-69
2022/04/03 08:47:49;;;;;;;0.90;0.20;;;12.90;36.60;;;;;;5152986;27;20520;-71
2022/04/03 08:50:16;;;;;;;1.33;0.20;;;12.90;36.70;;;;;;5153662;27;20045;-70
2022/04/03 08:52:45;;;;;;;0.57;0.20;;;13.00;36.80;;;;;;5153454;27;20546;-71
2022/04/03 08:55:11;;;;;;;0.55;0.55;;;13.00;36.70;;;;;;5154640;27;20117;-70
2022/04/03 08:57:36;;;;;;;0.70;0.10;;;13.00;36.70;;;;;;5153389;27;20066;-69
2022/04/03 09:00:04;;;;;;;0.30;0.10;;;13.00;36.70;;;;;;5154407;27;20034;-68
2022/04/03 09:02:30;;;;;;;0.70;0.30;;;13.00;36.70;;;;;;5154268;27;20047;-70
2022/04/03 09:04:55;;;;;;;1.48;0.10;;;13.00;36.70;;;;;;5154392;27;20493;-70
2022/04/03 09:07:21;;;;;;;1.30;0.20;;;13.00;36.70;;;;;;5153113;27;20031;-71
2022/04/03 09:09:57;;;;;;;1.05;0.20;;;12.90;36.60;;;;;;5153353;27;20070;-69
2022/04/03 09:12:23;;;;;;;1.30;0.10;;;13.00;36.80;;;;;;5154288;27;20054;-69
2022/04/03 09:14:51;;;;;;;0.63;0.10;;;13.00;36.70;;;;;;5154270;27;20046;-71
2022/04/03 09:20:14;;;;;;;0.43;0.10;;;13.00;36.70;;;;;;5130293;27;20375;-69
2022/04/03 09:22:42;;;;;;;0.38;0.15;;;13.00;36.60;;;;;;5128984;28;20436;-72
2022/04/03 09:25:11;;;;;;;1.08;0.30;;;13.00;36.60;;;;;;5129034;28;20039;-71
2022/04/03 09:30:31;;;;;;;0.45;0.10;;;13.00;36.70;;;;;;5130512;27;20358;-69
2022/04/03 09:32:59;;;;;;;0.77;0.10;;;13.00;36.70;;;;;;5129045;28;20047;-67
2022/04/03 09:35:28;;;;;;;0.85;0.20;;;13.00;36.70;;;;;;5128908;28;20548;-69
2022/04/03 09:38:12;;;;;;;1.65;0.10;;;13.00;36.60;;;;;;5129129;28;20074;-67
2022/04/03 09:40:41;;;;;;;0.28;0.10;;;13.00;36.70;;;;;;5146048;27;20047;-67
2022/04/03 09:46:05;;;;;;;0.82;0.10;;;13.00;36.70;;;;;;5089283;28;20916;-71
2022/04/03 09:48:34;;;;;;;1.17;0.20;;;13.00;36.80;;;;;;5088111;28;20044;-71
2022/04/03 09:51:22;;;;;;;0.55;0.10;;;12.90;36.80;;;;;;5088045;28;20121;-71
2022/04/03 09:53:52;;;;;;;0.65;0.10;;;12.90;36.80;;;;;;5088259;28;20036;-71
2022/04/03 09:59:06;;;;;;;0.35;0.10;;;12.90;36.80;;;;;;5130358;27;20173;-70
2022/04/03 10:04:15;;;;;;;0.60;0.10;;;12.90;36.80;;;;;;5150910;27;1223064;-69
2022/04/03 10:06:42;;;;;;;0.65;0.10;;;13.10;36.70;;;;;;5153083;27;20117;-66
2022/04/03 10:09:11;;;;;;;0.60;0.10;;;13.10;36.60;;;;;;5153306;27;20117;-70
2022/04/03 10:11:37;;;;;;;0.70;0.10;;;13.20;36.50;;;;;;5152954;27;20550;-66
2022/04/03 10:14:03;;;;;;;0.10;0.00;;;13.30;36.30;;;;;;5153263;27;20057;-66
2022/04/03 10:16:29;;;;;;;0.35;0.03;;;13.40;36.10;;;;;;5171656;27;20111;-68
2022/04/03 10:18:56;;;;;;;0.43;0.10;;;13.50;35.90;;;;;;5153184;27;20474;-67
2022/04/03 10:27:07;;;;;;;0.85;0.10;;;13.60;35.70;;;;;;5109813;27;20300;-69
2022/04/03 10:29:37;;;;;;;0.25;0.10;;;13.60;35.70;;;;;;5108524;28;20089;-69
2022/04/03 10:32:04;;;;;;;0.45;0.10;;;13.60;35.70;;;;;;5108401;28;20115;-71
2022/04/03 10:34:30;;;;;;;0.77;0.10;;;13.60;35.80;;;;;;5109830;28;20040;-70
2022/04/03 10:36:56;;;;;;;1.23;0.10;;;13.50;35.70;;;;;;5108577;28;20089;-71
2022/04/03 10:39:28;;;;;;;0.88;0.13;;;13.50;35.70;;;;;;5108535;28;20035;-71
2022/04/03 10:42:15;;;;;;;0.88;0.10;;;13.50;35.80;;;;;;5109672;28;20035;-71
2022/04/03 10:44:41;;;;;;;1.08;0.10;;;13.60;35.70;;;;;;5108079;28;20479;-69
2022/04/03 10:49:50;;;;;;;0.30;0.10;;;13.60;35.60;;;;;;5130261;27;20357;-69
2022/04/03 11:05:53;;;;;;;0.20;0.00;;;13.50;35.60;;;;;;5130265;27;20353;-69
2022/04/03 11:08:42;;;;;;;0.13;0.00;;;13.40;35.70;;;;;;5146477;27;20039;-69
2022/04/03 11:11:11;;;;;;;0.52;0.00;;;13.40;35.80;;;;;;5146225;27;20491;-69
2022/04/03 11:13:39;;;;;;;0.32;0.00;;;13.40;35.80;;;;;;5128918;28;20043;-69
2022/04/03 11:16:10;;;;;;;0.70;0.10;;;13.30;35.80;;;;;;5130184;27;20036;-68
2022/04/03 11:21:33;;;;;;;0.82;0.20;;;13.40;35.90;;;;;;5089328;27;20410;-71
2022/04/03 11:24:03;;;;;;;0.52;0.10;;;13.30;36.00;;;;;;5088059;28;20423;-69
2022/04/03 11:26:29;;;;;;;0.20;0.10;;;13.30;36.00;;;;;;5088414;28;20079;-71
2022/04/03 11:28:56;;;;;;;1.02;0.00;;;13.30;36.00;;;;;;5088219;28;20270;-71
2022/04/03 11:31:22;;;;;;;0.10;0.03;;;13.30;36.00;;;;;;5087992;28;20472;-70
2022/04/03 11:33:48;;;;;;;0.30;0.00;;;13.30;36.00;;;;;;5088234;28;20084;-70
2022/04/03 11:36:17;;;;;;;0.10;0.00;;;13.20;36.00;;;;;;5088810;28;20037;-70
2022/04/03 11:38:46;;;;;;;0.70;0.03;;;13.20;36.00;;;;;;5089087;28;20391;-69
2022/04/03 11:41:17;;;;;;;0.30;0.00;;;13.20;36.00;;;;;;5088274;28;20032;-69
2022/04/03 11:43:54;;;;;;;0.60;0.03;;;13.20;36.00;;;;;;5089028;28;20040;-68
2022/04/03 11:46:22;;;;;;;0.90;0.10;;;13.20;36.00;;;;;;5088943;28;20058;-70
2022/04/03 11:48:47;;;;;;;0.57;0.30;;;13.30;36.10;;;;;;5087718;28;20111;-71
2022/04/03 11:51:19;;;;;;;0.13;0.00;;;13.30;36.00;;;;;;5087651;28;20120;-70
2022/04/03 11:53:47;;;;;;;0.40;0.10;;;13.30;36.00;;;;;;5088995;28;20422;-69
2022/04/03 11:58:56;;;;;;;0.40;0.00;;;13.20;35.90;;;;;;5130067;27;20860;-69
2022/04/03 12:01:33;;;;;;;1.02;0.10;;;13.20;36.00;;;;;;5146212;27;20035;-67
2022/04/03 12:04:00;;;;;;;0.70;0.22;;;13.20;36.00;;;;;;5128488;28;20033;-71
2022/04/03 12:06:30;;;;;;;0.32;0.00;;;13.20;36.10;;;;;;5129017;28;20082;-67
2022/04/03 12:08:56;;;;;;;1.07;0.10;;;13.20;36.10;;;;;;5129135;28;20118;-69
2022/04/03 12:11:25;;;;;;;0.40;0.00;;;13.20;36.10;;;;;;5128739;28;20483;-70
2022/04/03 12:13:52;;;;;;;0.20;0.00;;;13.20;36.20;;;;;;5129085;28;20043;-67
2022/04/03 12:16:22;;;;;;;0.20;0.00;;;13.20;36.20;;;;;;5128945;27;20043;-66
2022/04/03 12:19:06;;;;;;;0.20;0.05;;;13.20;36.20;;;;;;5129003;28;20331;-68
2022/04/03 12:21:51;;;;;;;0.20;0.03;;;13.20;36.20;;;;;;5128570;28;20082;-69
2022/04/03 12:24:19;;;;;;;0.20;0.00;;;13.20;36.20;;;;;;5129976;28;20041;-69
2022/04/03 12:26:52;;;;;;;1.70;0.10;;;13.20;36.10;;;;;;5128734;28;20058;-68
2022/04/03 12:29:18;;;;;;;0.30;0.00;;;13.20;36.10;;;;;;5128664;27;20100;-67
2022/04/03 12:34:47;;;;;;;0.95;0.15;;;13.20;36.00;;;;;;5130310;27;20379;-70
2022/04/03 12:37:14;;;;;;;1.30;0.10;;;13.30;36.00;;;;;;5129130;28;20047;-70
2022/04/03 12:39:48;;;;;;;0.20;0.08;;;13.20;36.00;;;;;;5129258;28;20074;-70
2022/04/03 12:45:21;;;;;;;1.02;0.10;;;13.20;36.10;;;;;;5130261;27;20563;-69
2022/04/03 12:50:46;;;;;;;0.40;0.20;;;13.20;36.30;;;;;;5130713;27;20353;-70
2022/04/03 12:53:14;;;;;;;0.20;0.00;;;13.20;36.30;;;;;;5129126;28;20108;-70
2022/04/03 12:55:47;;;;;;;0.38;0.08;;;13.20;36.20;;;;;;5146411;27;20031;-71
2022/04/03 12:58:33;;;;;;;0.17;0.00;;;13.20;36.20;;;;;;5129109;28;20043;-68
2022/04/03 13:03:52;;;;;;;0.25;0.00;;;13.20;37.00;;;;;;5152679;27;1167470;-70
2022/04/03 13:06:27;;;;;;;0.20;0.00;;;13.20;36.30;;;;;;5153432;27;20110;-68
2022/04/03 13:14:21;;;;;;;0.20;0.00;;;13.20;36.30;;;;;;5130162;27;20402;-68
2022/04/03 13:16:48;;;;;;;0.15;0.00;;;13.20;36.30;;;;;;5129182;28;20044;-70
2022/04/03 13:19:16;;;;;;;0.10;0.00;;;13.20;36.30;;;;;;5129306;28;20100;-71
2022/04/03 13:21:44;;;;;;;0.10;0.00;;;13.20;36.40;;;;;;5128930;28;20050;-70
2022/04/03 13:24:11;;;;;;;0.38;0.10;;;13.30;36.50;;;;;;5129015;28;20043;-69
2022/04/03 13:26:37;;;;;;;0.52;0.00;;;13.20;36.50;;;;;;5128794;27;20050;-70
2022/04/03 13:29:06;;;;;;;1.13;0.03;;;13.20;36.50;;;;;;5128951;28;20092;-70
2022/04/03 13:31:33;;;;;;;1.25;0.13;;;13.20;36.60;;;;;;5129035;28;20079;-72
2022/04/03 13:34:03;;;;;;;0.57;0.15;;;13.10;36.60;;;;;;5128317;28;20036;-70
2022/04/03 13:36:28;;;;;;;0.52;0.00;;;13.20;36.70;;;;;;5128419;28;20039;-70
2022/04/03 13:38:55;;;;;;;0.30;0.10;;;13.20;36.70;;;;;;5128553;28;20035;-70
2022/04/03 13:41:21;;;;;;;0.10;0.00;;;13.20;36.70;;;;;;5146067;27;20092;-68
2022/04/03 13:43:47;;;;;;;0.20;0.00;;;13.20;36.70;;;;;;5129929;27;20114;-71